sensor_id;sensor_type;location;lat;lon;timestamp;pressure;altitude;pressure_sealevel;temperature;humidity
49122;BME280;35529;44.342;25.944;2022-08-16T00:02:06;99897.31;;;19.51;100.00
49122;BME280;35529;44.342;25.944;2022-08-16T00:04:32;99897.84;;;19.53;100.00
49122;BME280;35529;44.342;25.944;2022-08-16T00:06:59;99898.13;;;19.51;100.00
49122;BME280;35529;44.342;25.944;2022-08-16T00:09:27;99891.94;;;19.56;100.00
49122;BME280;35529;44.342;25.944;2022-08-16T00:11:53;99893.28;;;19.58;100.00
49122;BME280;35529;44.342;25.944;2022-08-16T00:14:21;99893.00;;;19.55;100.00
49122;BME280;35529;44.342;25.944;2022-08-16T00:16:48;99896.25;;;19.47;100.00
49122;BME280;35529;44.342;25.944;2022-08-16T00:19:15;99894.34;;;19.52;100.00
49122;BME280;35529;44.342;25.944;2022-08-16T00:21:42;99894.09;;;19.54;100.00
49122;BME280;35529;44.342;25.944;2022-08-16T00:24:09;99888.44;;;19.50;100.00
49122;BME280;35529;44.342;25.944;2022-08-16T00:26:35;99892.75;;;19.41;100.00
49122;BME280;35529;44.342;25.944;2022-08-16T00:29:02;99898.38;;;19.39;100.00
49122;BME280;35529;44.342;25.944;2022-08-16T00:31:29;99894.91;;;19.34;100.00
49122;BME280;35529;44.342;25.944;2022-08-16T00:33:56;99888.97;;;19.42;100.00
49122;BME280;35529;44.342;25.944;2022-08-16T00:36:22;99896.53;;;19.35;100.00
49122;BME280;35529;44.342;25.944;2022-08-16T00:38:48;99901.91;;;19.35;100.00
49122;BME280;35529;44.342;25.944;2022-08-16T00:41:14;99890.59;;;19.38;100.00
49122;BME280;35529;44.342;25.944;2022-08-16T00:43:40;99892.47;;;19.37;100.00
49122;BME280;35529;44.342;25.944;2022-08-16T00:46:12;99889.25;;;19.40;100.00
49122;BME280;35529;44.342;25.944;2022-08-16T00:48:40;99883.06;;;19.45;100.00
49122;BME280;35529;44.342;25.944;2022-08-16T00:51:06;99898.41;;;19.50;100.00
49122;BME280;35529;44.342;25.944;2022-08-16T00:53:32;99895.16;;;19.53;100.00
49122;BME280;35529;44.342;25.944;2022-08-16T00:55:59;99889.25;;;19.56;100.00
49122;BME280;35529;44.342;25.944;2022-08-16T00:58:28;99894.88;;;19.59;100.00
49122;BME280;35529;44.342;25.944;2022-08-16T01:00:55;99904.84;;;19.64;100.00
49122;BME280;35529;44.342;25.944;2022-08-16T01:03:22;99905.38;;;19.66;100.00
49122;BME280;35529;44.342;25.944;2022-08-16T01:05:49;99903.78;;;19.65;100.00
49122;BME280;35529;44.342;25.944;2022-08-16T01:08:18;99904.59;;;19.66;100.00
49122;BME280;35529;44.342;25.944;2022-08-16T01:10:45;99908.06;;;19.71;100.00
49122;BME280;35529;44.342;25.944;2022-08-16T01:13:13;99900.78;;;19.77;100.00
49122;BME280;35529;44.342;25.944;2022-08-16T01:15:40;99895.97;;;19.84;100.00
49122;BME280;35529;44.342;25.944;2022-08-16T01:18:09;99897.31;;;19.87;100.00
49122;BME280;35529;44.342;25.944;2022-08-16T01:20:37;99894.63;;;19.92;100.00
49122;BME280;35529;44.342;25.944;2022-08-16T01:23:07;99899.16;;;19.97;100.00
49122;BME280;35529;44.342;25.944;2022-08-16T01:25:36;99899.16;;;20.02;100.00
49122;BME280;35529;44.342;25.944;2022-08-16T01:28:05;99896.47;;;20.07;100.00
49122;BME280;35529;44.342;25.944;2022-08-16T01:30:37;99903.44;;;20.13;100.00
49122;BME280;35529;44.342;25.944;2022-08-16T01:33:04;99899.94;;;20.18;100.00
49122;BME280;35529;44.342;25.944;2022-08-16T01:38:12;99904.19;;;20.24;100.00
49122;BME280;35529;44.342;25.944;2022-08-16T01:40:38;99905.28;;;20.28;100.00
49122;BME280;35529;44.342;25.944;2022-08-16T01:43:04;99912.28;;;20.29;100.00
49122;BME280;35529;44.342;25.944;2022-08-16T01:45:33;99914.16;;;20.34;100.00
49122;BME280;35529;44.342;25.944;2022-08-16T01:48:00;99904.72;;;20.36;100.00
49122;BME280;35529;44.342;25.944;2022-08-16T01:50:26;99913.09;;;20.35;100.00
49122;BME280;35529;44.342;25.944;2022-08-16T01:52:53;99903.59;;;20.37;100.00
49122;BME280;35529;44.342;25.944;2022-08-16T01:55:20;99898.75;;;20.39;100.00
49122;BME280;35529;44.342;25.944;2022-08-16T01:57:46;99911.44;;;20.39;100.00
49122;BME280;35529;44.342;25.944;2022-08-16T02:00:13;99910.34;;;20.40;100.00
49122;BME280;35529;44.342;25.944;2022-08-16T02:02:40;99913.03;;;20.40;100.00
49122;BME280;35529;44.342;25.944;2022-08-16T02:05:06;99911.41;;;20.44;100.00
49122;BME280;35529;44.342;25.944;2022-08-16T02:07:33;99901.44;;;20.45;100.00
49122;BME280;35529;44.342;25.944;2022-08-16T02:09:59;99915.44;;;20.47;100.00
49122;BME280;35529;44.342;25.944;2022-08-16T02:12:26;99912.44;;;20.53;100.00
49122;BME280;35529;44.342;25.944;2022-08-16T02:14:53;99911.38;;;20.54;100.00
49122;BME280;35529;44.342;25.944;2022-08-16T02:17:19;99910.84;;;20.52;100.00
49122;BME280;35529;44.342;25.944;2022-08-16T02:19:45;99902.78;;;20.47;100.00
49122;BME280;35529;44.342;25.944;2022-08-16T02:22:14;99908.78;;;20.23;100.00
49122;BME280;35529;44.342;25.944;2022-08-16T02:24:42;99909.66;;;20.03;100.00
49122;BME280;35529;44.342;25.944;2022-08-16T02:27:09;99905.91;;;19.84;100.00
49122;BME280;35529;44.342;25.944;2022-08-16T02:29:35;99919.94;;;19.81;100.00
49122;BME280;35529;44.342;25.944;2022-08-16T02:32:02;99911.56;;;19.77;100.00
49122;BME280;35529;44.342;25.944;2022-08-16T02:34:29;99897.56;;;19.70;100.00
49122;BME280;35529;44.342;25.944;2022-08-16T02:36:55;99895.94;;;19.74;100.00
49122;BME280;35529;44.342;25.944;2022-08-16T02:39:21;99902.41;;;19.78;100.00
49122;BME280;35529;44.342;25.944;2022-08-16T02:41:48;99898.66;;;19.84;100.00
49122;BME280;35529;44.342;25.944;2022-08-16T02:44:15;99886.78;;;19.90;100.00
49122;BME280;35529;44.342;25.944;2022-08-16T02:46:42;99893.78;;;19.97;100.00
49122;BME280;35529;44.342;25.944;2022-08-16T02:49:08;99892.41;;;20.04;100.00
49122;BME280;35529;44.342;25.944;2022-08-16T02:51:35;99890.00;;;20.08;100.00
49122;BME280;35529;44.342;25.944;2022-08-16T02:54:03;99899.44;;;20.05;100.00
49122;BME280;35529;44.342;25.944;2022-08-16T02:56:29;99898.38;;;19.96;100.00
49122;BME280;35529;44.342;25.944;2022-08-16T02:58:55;99901.34;;;19.89;100.00
49122;BME280;35529;44.342;25.944;2022-08-16T03:01:23;99893.00;;;19.81;100.00
49122;BME280;35529;44.342;25.944;2022-08-16T03:03:51;99903.22;;;19.73;100.00
49122;BME280;35529;44.342;25.944;2022-08-16T03:06:17;99905.94;;;19.73;100.00
49122;BME280;35529;44.342;25.944;2022-08-16T03:08:46;99908.63;;;19.58;100.00
49122;BME280;35529;44.342;25.944;2022-08-16T03:11:13;99908.09;;;19.51;100.00
49122;BME280;35529;44.342;25.944;2022-08-16T03:13:39;99916.19;;;19.51;100.00
49122;BME280;35529;44.342;25.944;2022-08-16T03:16:06;99909.16;;;19.45;100.00
49122;BME280;35529;44.342;25.944;2022-08-16T03:18:32;99909.97;;;19.30;100.00
49122;BME280;35529;44.342;25.944;2022-08-16T03:20:59;99902.97;;;19.34;100.00
49122;BME280;35529;44.342;25.944;2022-08-16T03:23:26;99902.97;;;19.39;100.00
49122;BME280;35529;44.342;25.944;2022-08-16T03:25:52;99901.38;;;19.43;100.00
49122;BME280;35529;44.342;25.944;2022-08-16T03:28:18;99901.91;;;19.45;100.00
49122;BME280;35529;44.342;25.944;2022-08-16T03:30:45;99909.16;;;19.50;100.00
49122;BME280;35529;44.342;25.944;2022-08-16T03:33:12;99910.25;;;19.49;100.00
49122;BME280;35529;44.342;25.944;2022-08-16T03:35:39;99925.84;;;19.36;100.00
49122;BME280;35529;44.342;25.944;2022-08-16T03:38:07;99912.94;;;19.33;100.00
49122;BME280;35529;44.342;25.944;2022-08-16T03:40:34;99926.94;;;19.25;100.00
49122;BME280;35529;44.342;25.944;2022-08-16T03:43:02;99916.69;;;19.22;100.00
49122;BME280;35529;44.342;25.944;2022-08-16T03:45:30;99929.91;;;19.18;100.00
49122;BME280;35529;44.342;25.944;2022-08-16T03:47:58;99923.69;;;19.18;100.00
49122;BME280;35529;44.342;25.944;2022-08-16T03:50:27;99925.03;;;19.20;100.00
49122;BME280;35529;44.342;25.944;2022-08-16T03:52:53;99918.06;;;19.30;100.00
49122;BME280;35529;44.342;25.944;2022-08-16T03:55:20;99916.44;;;19.29;100.00
49122;BME280;35529;44.342;25.944;2022-08-16T03:57:46;99918.59;;;19.26;100.00
49122;BME280;35529;44.342;25.944;2022-08-16T04:00:17;99923.16;;;19.36;100.00
49122;BME280;35529;44.342;25.944;2022-08-16T04:02:44;99929.09;;;19.33;100.00
49122;BME280;35529;44.342;25.944;2022-08-16T04:05:10;99931.78;;;19.23;100.00
49122;BME280;35529;44.342;25.944;2022-08-16T04:07:37;99942.81;;;19.32;100.00
49122;BME280;35529;44.342;25.944;2022-08-16T04:10:04;99935.53;;;19.27;100.00
49122;BME280;35529;44.342;25.944;2022-08-16T04:12:31;99932.84;;;19.32;100.00
49122;BME280;35529;44.342;25.944;2022-08-16T04:14:57;99928.00;;;19.45;100.00
49122;BME280;35529;44.342;25.944;2022-08-16T04:17:23;99930.97;;;19.64;100.00
49122;BME280;35529;44.342;25.944;2022-08-16T04:19:49;99926.69;;;19.63;100.00
49122;BME280;35529;44.342;25.944;2022-08-16T04:22:15;99931.78;;;19.74;100.00
49122;BME280;35529;44.342;25.944;2022-08-16T04:24:41;99935.00;;;19.76;100.00
49122;BME280;35529;44.342;25.944;2022-08-16T04:27:07;99923.94;;;19.78;100.00
49122;BME280;35529;44.342;25.944;2022-08-16T04:29:34;99936.38;;;19.95;100.00
49122;BME280;35529;44.342;25.944;2022-08-16T04:32:00;99919.38;;;20.04;100.00
49122;BME280;35529;44.342;25.944;2022-08-16T04:34:26;99927.97;;;20.12;100.00
49122;BME280;35529;44.342;25.944;2022-08-16T04:36:53;99929.84;;;20.16;100.00
49122;BME280;35529;44.342;25.944;2022-08-16T04:39:19;99937.63;;;20.28;100.00
49122;BME280;35529;44.342;25.944;2022-08-16T04:41:46;99946.16;;;20.51;100.00
49122;BME280;35529;44.342;25.944;2022-08-16T04:44:12;99939.09;;;20.65;100.00
49122;BME280;35529;44.342;25.944;2022-08-16T04:46:38;99941.22;;;20.79;100.00
49122;BME280;35529;44.342;25.944;2022-08-16T04:49:05;99947.38;;;20.89;100.00
49122;BME280;35529;44.342;25.944;2022-08-16T04:51:34;99940.53;;;21.07;100.00
49122;BME280;35529;44.342;25.944;2022-08-16T04:54:00;99932.88;;;21.20;100.00
49122;BME280;35529;44.342;25.944;2022-08-16T04:56:26;99934.16;;;21.33;100.00
49122;BME280;35529;44.342;25.944;2022-08-16T04:58:52;99939.44;;;21.43;100.00
49122;BME280;35529;44.342;25.944;2022-08-16T05:01:18;99925.38;;;21.51;100.00
49122;BME280;35529;44.342;25.944;2022-08-16T05:03:45;99940.69;;;21.61;100.00
49122;BME280;35529;44.342;25.944;2022-08-16T05:06:11;99934.63;;;21.74;100.00
49122;BME280;35529;44.342;25.944;2022-08-16T05:08:38;99943.00;;;21.78;100.00
49122;BME280;35529;44.342;25.944;2022-08-16T05:11:05;99930.44;;;21.87;100.00
49122;BME280;35529;44.342;25.944;2022-08-16T05:13:33;99939.16;;;22.08;100.00
49122;BME280;35529;44.342;25.944;2022-08-16T05:15:59;99938.75;;;22.20;100.00
49122;BME280;35529;44.342;25.944;2022-08-16T05:18:26;99934.00;;;22.36;100.00
49122;BME280;35529;44.342;25.944;2022-08-16T05:20:52;99936.53;;;22.52;97.70
49122;BME280;35529;44.342;25.944;2022-08-16T05:23:18;99937.56;;;22.56;96.48
49122;BME280;35529;44.342;25.944;2022-08-16T05:25:44;99928.34;;;22.57;96.89
49122;BME280;35529;44.342;25.944;2022-08-16T05:28:10;99930.69;;;22.64;97.77
49122;BME280;35529;44.342;25.944;2022-08-16T05:30:37;99932.59;;;22.63;97.29
49122;BME280;35529;44.342;25.944;2022-08-16T05:33:03;99927.06;;;22.73;96.95
49122;BME280;35529;44.342;25.944;2022-08-16T05:35:30;99924.84;;;22.75;96.64
49122;BME280;35529;44.342;25.944;2022-08-16T05:37:56;99925.50;;;22.86;96.12
49122;BME280;35529;44.342;25.944;2022-08-16T05:40:22;99921.06;;;22.96;95.90
49122;BME280;35529;44.342;25.944;2022-08-16T05:42:48;99921.88;;;23.15;95.42
49122;BME280;35529;44.342;25.944;2022-08-16T05:45:14;99933.88;;;23.28;95.48
49122;BME280;35529;44.342;25.944;2022-08-16T05:47:40;99927.03;;;23.50;94.83
49122;BME280;35529;44.342;25.944;2022-08-16T05:50:06;99935.41;;;23.67;91.42
49122;BME280;35529;44.342;25.944;2022-08-16T05:52:33;99934.72;;;23.75;89.40
49122;BME280;35529;44.342;25.944;2022-08-16T05:54:59;99929.72;;;23.83;89.92
49122;BME280;35529;44.342;25.944;2022-08-16T05:57:27;99932.31;;;23.88;88.82
49122;BME280;35529;44.342;25.944;2022-08-16T05:59:53;99932.78;;;23.95;88.95
49122;BME280;35529;44.342;25.944;2022-08-16T06:02:19;99939.00;;;24.09;88.42
49122;BME280;35529;44.342;25.944;2022-08-16T06:04:49;99938.72;;;24.25;84.62
49122;BME280;35529;44.342;25.944;2022-08-16T06:07:15;99930.78;;;24.29;86.75
49122;BME280;35529;44.342;25.944;2022-08-16T06:09:41;99926.34;;;24.19;87.55
49122;BME280;35529;44.342;25.944;2022-08-16T06:12:07;99921.13;;;24.22;86.63
49122;BME280;35529;44.342;25.944;2022-08-16T06:14:33;99914.00;;;24.26;86.73
49122;BME280;35529;44.342;25.944;2022-08-16T06:16:59;99925.44;;;24.37;86.78
49122;BME280;35529;44.342;25.944;2022-08-16T06:19:26;99930.78;;;24.42;86.19
49122;BME280;35529;44.342;25.944;2022-08-16T06:21:52;99925.25;;;24.48;82.69
49122;BME280;35529;44.342;25.944;2022-08-16T06:24:18;99930.38;;;24.49;84.48
49122;BME280;35529;44.342;25.944;2022-08-16T06:26:44;99930.25;;;24.54;84.62
49122;BME280;35529;44.342;25.944;2022-08-16T06:29:10;99930.06;;;24.65;82.30
49122;BME280;35529;44.342;25.944;2022-08-16T06:31:36;99930.03;;;24.79;83.69
49122;BME280;35529;44.342;25.944;2022-08-16T06:34:03;99930.94;;;24.88;81.88
49122;BME280;35529;44.342;25.944;2022-08-16T06:36:29;99932.97;;;25.05;82.61
49122;BME280;35529;44.342;25.944;2022-08-16T06:38:55;99943.59;;;25.15;81.15
49122;BME280;35529;44.342;25.944;2022-08-16T06:41:21;99944.00;;;25.45;83.27
49122;BME280;35529;44.342;25.944;2022-08-16T06:43:47;99947.66;;;25.63;80.19
49122;BME280;35529;44.342;25.944;2022-08-16T06:46:25;99949.75;;;25.66;80.50
49122;BME280;35529;44.342;25.944;2022-08-16T06:48:52;99943.63;;;25.60;79.19
49122;BME280;35529;44.342;25.944;2022-08-16T06:51:18;99943.50;;;25.66;79.94
49122;BME280;35529;44.342;25.944;2022-08-16T06:53:44;99940.03;;;25.74;78.79
49122;BME280;35529;44.342;25.944;2022-08-16T06:56:13;99938.88;;;25.98;79.79
49122;BME280;35529;44.342;25.944;2022-08-16T06:58:39;99950.66;;;26.16;78.93
49122;BME280;35529;44.342;25.944;2022-08-16T07:01:05;99954.38;;;26.29;77.94
49122;BME280;35529;44.342;25.944;2022-08-16T07:03:31;99951.34;;;26.30;76.06
49122;BME280;35529;44.342;25.944;2022-08-16T07:05:57;99966.31;;;26.10;71.75
49122;BME280;35529;44.342;25.944;2022-08-16T07:08:24;99946.19;;;25.88;75.12
49122;BME280;35529;44.342;25.944;2022-08-16T07:10:50;99945.22;;;25.84;76.12
49122;BME280;35529;44.342;25.944;2022-08-16T07:13:17;99946.09;;;26.02;80.71
49122;BME280;35529;44.342;25.944;2022-08-16T07:15:43;99952.91;;;26.14;79.74
49122;BME280;35529;44.342;25.944;2022-08-16T07:18:09;99950.47;;;26.12;73.74
49122;BME280;35529;44.342;25.944;2022-08-16T07:20:40;99952.25;;;26.17;72.75
49122;BME280;35529;44.342;25.944;2022-08-16T07:23:06;99947.34;;;26.27;72.42
49122;BME280;35529;44.342;25.944;2022-08-16T07:25:33;99945.09;;;26.30;70.94
49122;BME280;35529;44.342;25.944;2022-08-16T07:27:59;99943.34;;;26.34;74.10
49122;BME280;35529;44.342;25.944;2022-08-16T07:30:26;99944.81;;;26.40;70.26
49122;BME280;35529;44.342;25.944;2022-08-16T07:32:53;99947.06;;;26.47;72.49
49122;BME280;35529;44.342;25.944;2022-08-16T07:35:20;99944.53;;;26.59;65.50
49122;BME280;35529;44.342;25.944;2022-08-16T07:37:47;99944.22;;;26.69;69.89
49122;BME280;35529;44.342;25.944;2022-08-16T07:40:15;99940.34;;;26.62;62.07
49122;BME280;35529;44.342;25.944;2022-08-16T07:42:42;99950.47;;;26.61;67.47
49122;BME280;35529;44.342;25.944;2022-08-16T07:45:08;99946.78;;;26.57;70.09
49122;BME280;35529;44.342;25.944;2022-08-16T07:47:34;99939.75;;;26.65;72.21
49122;BME280;35529;44.342;25.944;2022-08-16T07:50:00;99943.31;;;26.74;69.07
49122;BME280;35529;44.342;25.944;2022-08-16T07:52:27;99931.94;;;26.81;67.66
49122;BME280;35529;44.342;25.944;2022-08-16T07:54:53;99939.16;;;26.94;68.31
49122;BME280;35529;44.342;25.944;2022-08-16T07:57:19;99945.88;;;27.05;70.02
49122;BME280;35529;44.342;25.944;2022-08-16T07:59:45;99942.34;;;27.14;64.73
49122;BME280;35529;44.342;25.944;2022-08-16T08:02:11;99952.28;;;27.27;66.48
49122;BME280;35529;44.342;25.944;2022-08-16T08:04:39;99945.22;;;27.35;68.22
49122;BME280;35529;44.342;25.944;2022-08-16T08:07:05;99939.81;;;27.43;68.54
49122;BME280;35529;44.342;25.944;2022-08-16T08:09:31;99937.53;;;27.54;66.70
49122;BME280;35529;44.342;25.944;2022-08-16T08:11:57;99933.31;;;27.66;66.04
49122;BME280;35529;44.342;25.944;2022-08-16T08:14:23;99931.53;;;27.79;66.69
49122;BME280;35529;44.342;25.944;2022-08-16T08:16:49;99938.72;;;27.83;61.90
49122;BME280;35529;44.342;25.944;2022-08-16T08:19:16;99936.78;;;27.92;65.84
49122;BME280;35529;44.342;25.944;2022-08-16T08:21:42;99932.59;;;28.04;64.54
49122;BME280;35529;44.342;25.944;2022-08-16T08:24:09;99926.75;;;28.14;61.63
49122;BME280;35529;44.342;25.944;2022-08-16T08:26:36;99926.22;;;28.21;63.98
49122;BME280;35529;44.342;25.944;2022-08-16T08:29:02;99926.22;;;28.21;60.08
49122;BME280;35529;44.342;25.944;2022-08-16T08:31:29;99924.00;;;28.23;58.96
49122;BME280;35529;44.342;25.944;2022-08-16T08:33:55;99925.06;;;28.31;58.06
49122;BME280;35529;44.342;25.944;2022-08-16T08:36:24;99931.59;;;28.38;56.70
49122;BME280;35529;44.342;25.944;2022-08-16T08:38:51;99929.28;;;28.49;60.78
49122;BME280;35529;44.342;25.944;2022-08-16T08:41:18;99930.09;;;28.50;57.72
49122;BME280;35529;44.342;25.944;2022-08-16T08:43:45;99919.19;;;28.50;64.64
49122;BME280;35529;44.342;25.944;2022-08-16T08:46:11;99915.91;;;28.56;64.13
49122;BME280;35529;44.342;25.944;2022-08-16T08:48:37;99915.88;;;28.65;62.16
49122;BME280;35529;44.342;25.944;2022-08-16T08:51:04;99919.53;;;28.69;59.50
49122;BME280;35529;44.342;25.944;2022-08-16T08:53:31;99911.97;;;28.75;62.94
49122;BME280;35529;44.342;25.944;2022-08-16T08:55:58;99915.44;;;28.84;59.15
49122;BME280;35529;44.342;25.944;2022-08-16T08:58:24;99909.34;;;29.00;62.21
49122;BME280;35529;44.342;25.944;2022-08-16T09:00:50;99910.06;;;29.09;60.46
49122;BME280;35529;44.342;25.944;2022-08-16T09:03:16;99909.66;;;29.19;59.51
49122;BME280;35529;44.342;25.944;2022-08-16T09:05:43;99903.81;;;29.30;60.64
49122;BME280;35529;44.342;25.944;2022-08-16T09:08:09;99903.91;;;29.33;56.79
49122;BME280;35529;44.342;25.944;2022-08-16T09:10:36;99914.63;;;29.38;59.23
49122;BME280;35529;44.342;25.944;2022-08-16T09:13:03;99898.44;;;29.33;61.19
49122;BME280;35529;44.342;25.944;2022-08-16T09:15:30;99907.13;;;29.35;54.27
49122;BME280;35529;44.342;25.944;2022-08-16T09:17:57;99904.63;;;29.42;53.27
49122;BME280;35529;44.342;25.944;2022-08-16T09:20:24;99911.28;;;29.54;58.43
49122;BME280;35529;44.342;25.944;2022-08-16T09:22:51;99908.97;;;29.56;53.39
49122;BME280;35529;44.342;25.944;2022-08-16T09:25:17;99906.03;;;29.61;56.43
49122;BME280;35529;44.342;25.944;2022-08-16T09:27:43;99903.66;;;29.72;61.81
49122;BME280;35529;44.342;25.944;2022-08-16T09:30:09;99907.22;;;29.85;56.41
49122;BME280;35529;44.342;25.944;2022-08-16T09:32:36;99915.88;;;29.87;49.56
49122;BME280;35529;44.342;25.944;2022-08-16T09:35:02;99917.28;;;29.93;55.59
49122;BME280;35529;44.342;25.944;2022-08-16T09:37:29;99923.66;;;29.97;59.81
49122;BME280;35529;44.342;25.944;2022-08-16T09:39:56;99911.66;;;30.02;58.48
49122;BME280;35529;44.342;25.944;2022-08-16T09:42:23;99912.69;;;30.09;54.23
49122;BME280;35529;44.342;25.944;2022-08-16T09:44:49;99918.44;;;30.17;57.10
49122;BME280;35529;44.342;25.944;2022-08-16T09:47:16;99912.59;;;30.18;51.29
49122;BME280;35529;44.342;25.944;2022-08-16T09:49:42;99909.63;;;30.23;48.67
49122;BME280;35529;44.342;25.944;2022-08-16T09:52:09;99903.09;;;30.40;54.95
49122;BME280;35529;44.342;25.944;2022-08-16T09:54:36;99904.81;;;30.57;54.02
49122;BME280;35529;44.342;25.944;2022-08-16T09:57:03;99920.66;;;30.64;51.66
49122;BME280;35529;44.342;25.944;2022-08-16T09:59:29;99913.81;;;30.70;51.11
49122;BME280;35529;44.342;25.944;2022-08-16T10:01:56;99913.81;;;30.70;52.64
49122;BME280;35529;44.342;25.944;2022-08-16T10:04:22;99915.38;;;30.71;55.22
49122;BME280;35529;44.342;25.944;2022-08-16T10:06:50;99910.78;;;30.75;47.92
49122;BME280;35529;44.342;25.944;2022-08-16T10:09:16;99911.38;;;30.81;48.29
49122;BME280;35529;44.342;25.944;2022-08-16T10:11:42;99902.56;;;30.88;53.18
49122;BME280;35529;44.342;25.944;2022-08-16T10:14:27;99909.03;;;30.96;43.41
49122;BME280;35529;44.342;25.944;2022-08-16T10:17:02;99909.47;;;30.98;43.70
49122;BME280;35529;44.342;25.944;2022-08-16T10:19:29;99900.09;;;31.11;42.48
49122;BME280;35529;44.342;25.944;2022-08-16T10:21:56;99899.38;;;31.14;50.82
49122;BME280;35529;44.342;25.944;2022-08-16T10:24:22;99897.09;;;31.16;43.12
49122;BME280;35529;44.342;25.944;2022-08-16T10:26:49;99899.91;;;31.20;47.81
49122;BME280;35529;44.342;25.944;2022-08-16T10:29:15;99901.25;;;31.26;53.45
49122;BME280;35529;44.342;25.944;2022-08-16T10:31:41;99886.41;;;31.27;53.47
49122;BME280;35529;44.342;25.944;2022-08-16T10:34:08;99880.66;;;31.32;50.04
49122;BME280;35529;44.342;25.944;2022-08-16T10:36:34;99892.97;;;31.38;45.11
49122;BME280;35529;44.342;25.944;2022-08-16T10:39:00;99885.97;;;31.41;52.89
49122;BME280;35529;44.342;25.944;2022-08-16T10:41:26;99886.50;;;31.47;49.05
49122;BME280;35529;44.342;25.944;2022-08-16T10:43:53;99882.09;;;31.58;57.91
49122;BME280;35529;44.342;25.944;2022-08-16T10:46:19;99880.63;;;31.61;45.12
49122;BME280;35529;44.342;25.944;2022-08-16T10:48:45;99882.03;;;31.70;52.91
49122;BME280;35529;44.342;25.944;2022-08-16T10:51:11;99880.16;;;31.74;52.42
49122;BME280;35529;44.342;25.944;2022-08-16T10:53:37;99872.81;;;31.79;54.90
49122;BME280;35529;44.342;25.944;2022-08-16T10:56:04;99873.88;;;31.90;51.85
49122;BME280;35529;44.342;25.944;2022-08-16T10:58:31;99874.50;;;31.99;52.13
49122;BME280;35529;44.342;25.944;2022-08-16T11:00:58;99879.09;;;32.11;54.23
49122;BME280;35529;44.342;25.944;2022-08-16T11:03:24;99879.72;;;32.20;49.26
49122;BME280;35529;44.342;25.944;2022-08-16T11:05:52;99871.13;;;32.22;47.96
49122;BME280;35529;44.342;25.944;2022-08-16T11:08:18;99865.34;;;32.27;46.16
49122;BME280;35529;44.342;25.944;2022-08-16T11:10:45;99866.84;;;32.24;51.71
49122;BME280;35529;44.342;25.944;2022-08-16T11:13:13;99857.97;;;32.31;53.69
49122;BME280;35529;44.342;25.944;2022-08-16T11:15:39;99860.41;;;32.36;44.38
49122;BME280;35529;44.342;25.944;2022-08-16T11:18:08;99856.75;;;32.48;49.02
49122;BME280;35529;44.342;25.944;2022-08-16T11:20:35;99853.81;;;32.57;48.11
49122;BME280;35529;44.342;25.944;2022-08-16T11:23:01;99850.31;;;32.60;44.75
49122;BME280;35529;44.342;25.944;2022-08-16T11:25:28;99851.19;;;32.64;40.87
49122;BME280;35529;44.342;25.944;2022-08-16T11:27:55;99844.53;;;32.65;41.45
49122;BME280;35529;44.342;25.944;2022-08-16T11:30:22;99846.66;;;32.72;45.46
49122;BME280;35529;44.342;25.944;2022-08-16T11:32:48;99840.06;;;32.77;40.13
49122;BME280;35529;44.342;25.944;2022-08-16T11:35:30;99837.88;;;33.05;35.86
49122;BME280;35529;44.342;25.944;2022-08-16T11:38:01;99839.09;;;33.28;39.55
49122;BME280;35529;44.342;25.944;2022-08-16T11:40:29;99838.63;;;33.49;42.05
49122;BME280;35529;44.342;25.944;2022-08-16T11:42:59;99830.72;;;33.70;42.32
49122;BME280;35529;44.342;25.944;2022-08-16T11:45:26;99824.19;;;33.79;46.84
49122;BME280;35529;44.342;25.944;2022-08-16T11:47:52;99834.09;;;33.60;43.78
49122;BME280;35529;44.342;25.944;2022-08-16T11:50:19;99828.25;;;33.38;41.44
49122;BME280;35529;44.342;25.944;2022-08-16T11:52:46;99819.88;;;33.31;44.66
49122;BME280;35529;44.342;25.944;2022-08-16T11:55:12;99828.56;;;33.33;43.66
49122;BME280;35529;44.342;25.944;2022-08-16T11:57:38;99815.47;;;33.27;42.34
49122;BME280;35529;44.342;25.944;2022-08-16T12:00:06;99829.81;;;33.16;41.78
49122;BME280;35529;44.342;25.944;2022-08-16T12:02:34;99825.81;;;33.14;49.69
49122;BME280;35529;44.342;25.944;2022-08-16T12:05:00;99810.25;;;32.98;41.03
49122;BME280;35529;44.342;25.944;2022-08-16T12:07:26;99809.69;;;32.89;48.15
49122;BME280;35529;44.342;25.944;2022-08-16T12:09:52;99800.88;;;32.80;39.02
49122;BME280;35529;44.342;25.944;2022-08-16T12:12:19;99800.88;;;32.80;35.28
49122;BME280;35529;44.342;25.944;2022-08-16T12:14:45;99806.00;;;32.81;40.85
49122;BME280;35529;44.342;25.944;2022-08-16T12:17:11;99810.84;;;32.88;39.23
49122;BME280;35529;44.342;25.944;2022-08-16T12:19:39;99822.09;;;33.02;38.74
49122;BME280;35529;44.342;25.944;2022-08-16T12:22:05;99803.03;;;33.13;44.86
49122;BME280;35529;44.342;25.944;2022-08-16T12:24:32;99797.28;;;33.22;42.70
49122;BME280;35529;44.342;25.944;2022-08-16T12:26:59;99801.56;;;33.19;35.61
49122;BME280;35529;44.342;25.944;2022-08-16T12:29:25;99802.91;;;33.06;38.60
49122;BME280;35529;44.342;25.944;2022-08-16T12:31:51;99799.00;;;33.07;39.01
49122;BME280;35529;44.342;25.944;2022-08-16T12:34:18;99800.28;;;33.13;37.25
49122;BME280;35529;44.342;25.944;2022-08-16T12:36:44;99794.81;;;33.17;44.17
49122;BME280;35529;44.342;25.944;2022-08-16T12:39:12;99789.66;;;33.12;36.06
49122;BME280;35529;44.342;25.944;2022-08-16T12:41:38;99789.31;;;33.17;34.79
49122;BME280;35529;44.342;25.944;2022-08-16T12:44:05;99788.53;;;33.16;45.14
49122;BME280;35529;44.342;25.944;2022-08-16T12:46:32;99799.66;;;33.00;46.46